createdAt,value
2022-08-07T00:00:27.548Z,100745.19
2022-08-07T00:03:08.932Z,100744.88
2022-08-07T00:05:37.417Z,100747.73
2022-08-07T00:08:07.798Z,100752.32
2022-08-07T00:10:47.881Z,100753.52
2022-08-07T00:13:26.671Z,100754.30
2022-08-07T00:15:54.985Z,100758.29
2022-08-07T00:18:26.250Z,100759.58
2022-08-07T00:21:01.823Z,100758.42
2022-08-07T00:23:33.686Z,100763.08
2022-08-07T00:26:18.950Z,100761.70
2022-08-07T00:28:55.392Z,100764.69
2022-08-07T00:31:25.543Z,100766.05
2022-08-07T00:34:05.351Z,100763.12
2022-08-07T00:36:38.558Z,100764.20
2022-08-07T00:39:16.741Z,100762.37
2022-08-07T00:42:02.580Z,100763.63
2022-08-07T00:44:41.251Z,100761.41
2022-08-07T00:47:15.780Z,100766.49
2022-08-07T00:50:21.131Z,100771.02
2022-08-07T00:52:47.495Z,100774.27
2022-08-07T00:55:17.233Z,100773.37
2022-08-07T00:57:55.702Z,100776.38
2022-08-07T01:00:24.766Z,100773.21
2022-08-07T01:02:52.433Z,100769.64
2022-08-07T01:05:24.568Z,100775.17
2022-08-07T01:07:51.887Z,100784.65
2022-08-07T01:10:20.368Z,100791.39
2022-08-07T01:12:53.746Z,100799.90
2022-08-07T01:15:35.895Z,100794.59
2022-08-07T01:18:17.562Z,100784.92
2022-08-07T01:21:22.574Z,100785.83
2022-08-07T01:23:54.520Z,100785.66
2022-08-07T01:26:23.115Z,100785.02
2022-08-07T01:28:54.952Z,100785.61
2022-08-07T01:31:40.918Z,100791.80
2022-08-07T01:34:13.692Z,100787.98
2022-08-07T01:36:44.119Z,100790.71
2022-08-07T01:39:16.965Z,100793.71
2022-08-07T01:42:36.878Z,100795.55
2022-08-07T01:44:44.231Z,100800.90
2022-08-07T01:48:19.950Z,100802.06
2022-08-07T01:50:05.949Z,100804.34
2022-08-07T01:52:34.925Z,100801.94
2022-08-07T01:55:03.883Z,100807.34
2022-08-07T01:58:05.574Z,100805.79
2022-08-07T02:00:30.601Z,100803.17
2022-08-07T02:03:19.274Z,100797.83
2022-08-07T02:06:01.751Z,100800.04
2022-08-07T02:08:40.652Z,100804.02
2022-08-07T02:11:30.850Z,100802.10
2022-08-07T02:14:02.545Z,100802.37
2022-08-07T02:16:33.638Z,100809.52
2022-08-07T02:20:07.606Z,100810.72
2022-08-07T02:21:57.805Z,100810.61
2022-08-07T02:24:29.934Z,100811.59
2022-08-07T02:27:01.515Z,100816.45
2022-08-07T02:29:31.585Z,100822.39
2022-08-07T02:32:01.551Z,100820.20
2022-08-07T02:34:30.195Z,100820.44
2022-08-07T02:37:01.793Z,100818.95
2022-08-07T02:40:11.946Z,100822.02
2022-08-07T02:42:33.353Z,100820.63
2022-08-07T02:45:20.654Z,100821.45
2022-08-07T02:47:52.558Z,100823.60
2022-08-07T02:50:20.753Z,100826.05
2022-08-07T02:53:07.689Z,100829.69
2022-08-07T02:56:03.644Z,100838.41
2022-08-07T02:58:36.966Z,100839.66
2022-08-07T03:01:15.966Z,100839.24
2022-08-07T03:03:49.913Z,100842.24
2022-08-07T03:06:26.141Z,100843.04
2022-08-07T03:09:07.357Z,100847.06
2022-08-07T03:11:52.304Z,100854.90
2022-08-07T03:14:27.749Z,100855.73
2022-08-07T03:16:56.870Z,100856.67
2022-08-07T03:19:24.914Z,100861.45
2022-08-07T03:21:58.711Z,100870.26
2022-08-07T03:24:28.042Z,100875.90
2022-08-07T03:27:04.482Z,100879.72
2022-08-07T03:29:51.445Z,100883.40
2022-08-07T03:32:38.952Z,100887.05
2022-08-07T03:35:26.119Z,100889.21
2022-08-07T03:38:01.598Z,100886.92
2022-08-07T03:40:36.636Z,100889.97
2022-08-07T03:43:13.696Z,100888.34
2022-08-07T03:45:47.784Z,100886.13
2022-08-07T03:48:19.956Z,100888.30
2022-08-07T03:50:55.705Z,100892.11
2022-08-07T03:53:49.872Z,100896.11
2022-08-07T03:56:32.637Z,100896.64
2022-08-07T03:59:09.436Z,100895.42
2022-08-07T04:01:45.590Z,100897.45
2022-08-07T04:04:17.275Z,100894.04
2022-08-07T04:06:46.814Z,100897.08
2022-08-07T04:09:23.041Z,100901.23
2022-08-07T04:12:24.113Z,100905.98
2022-08-07T04:14:46.096Z,100908.07
2022-08-07T04:17:21.154Z,100915.51
2022-08-07T04:19:55.276Z,100915.15
2022-08-07T04:22:29.480Z,100921.41
2022-08-07T04:25:01.617Z,100926.10
2022-08-07T04:27:35.677Z,100922.92
2022-08-07T04:30:35.625Z,100918.75
2022-08-07T04:33:14.014Z,100920.99
2022-08-07T04:35:51.266Z,100924.39
2022-08-07T04:38:26.312Z,100933.63
2022-08-07T04:40:56.857Z,100939.52
2022-08-07T04:44:12.791Z,100942.99
2022-08-07T04:47:04.455Z,100941.99
2022-08-07T04:50:04.146Z,100947.39
2022-08-07T04:53:09.252Z,100949.45
2022-08-07T04:58:16.821Z,100946.02
2022-08-07T05:00:09.949Z,100951.30
2022-08-07T05:02:24.003Z,100956.27
2022-08-07T05:05:51.960Z,100954.94
2022-08-07T05:08:02.621Z,100956.34
2022-08-07T05:11:10.673Z,100962.22
2022-08-07T05:14:55.123Z,100961.91
2022-08-07T05:16:52.903Z,100962.79
2022-08-07T05:19:44.044Z,100967.85
2022-08-07T05:22:26.837Z,100965.94
2022-08-07T05:25:02.118Z,100968.29
2022-08-07T05:28:16.273Z,100967.96
2022-08-07T05:30:32.780Z,100967.36
2022-08-07T05:33:04.776Z,100968.95
2022-08-07T05:35:42.168Z,100971.06
2022-08-07T05:38:12.396Z,100974.52
2022-08-07T05:41:12.338Z,100976.67
2022-08-07T05:44:11.809Z,100975.31
2022-08-07T05:46:43.105Z,100976.51
2022-08-07T05:49:13.128Z,100977.04
2022-08-07T05:51:47.768Z,100976.23
2022-08-07T05:54:30.675Z,100978.61
2022-08-07T05:57:04.074Z,100983.10
2022-08-07T05:59:38.984Z,100979.40
2022-08-07T06:02:32.851Z,100989.19
2022-08-07T06:05:10.888Z,100987.42
2022-08-07T06:08:14.537Z,100989.47
2022-08-07T06:10:32.366Z,100989.13
2022-08-07T06:13:02.211Z,100993.65
2022-08-07T06:15:42.545Z,100996.79
2022-08-07T06:18:14.137Z,100998.14
2022-08-07T06:20:50.730Z,101004.88
2022-08-07T06:24:37.792Z,101002.80
2022-08-07T06:26:30.102Z,100998.89
2022-08-07T06:28:59.862Z,101000.13
2022-08-07T06:31:46.632Z,101000.48
2022-08-07T06:34:19.746Z,101006.00
2022-08-07T06:36:51.855Z,101008.34
2022-08-07T06:40:18.023Z,101004.14
2022-08-07T06:42:32.816Z,101002.73
2022-08-07T06:45:21.194Z,101006.36
2022-08-07T06:47:58.631Z,101000.78
2022-08-07T06:50:50.850Z,101003.91
2022-08-07T06:55:27.819Z,101006.05
2022-08-07T06:56:17.143Z,101004.00
2022-08-07T07:00:11.913Z,101001.81
2022-08-07T07:01:43.756Z,101006.91
2022-08-07T07:04:32.902Z,101003.75
2022-08-07T07:07:18.862Z,100997.37
2022-08-07T07:09:50.848Z,100999.63
2022-08-07T07:12:53.596Z,100998.02
2022-08-07T07:15:39.124Z,100999.92
2022-08-07T07:18:19.243Z,100994.73
2022-08-07T07:21:19.653Z,100993.73
2022-08-07T07:24:09.390Z,100999.92
2022-08-07T07:26:38.142Z,100998.80
2022-08-07T07:29:40.716Z,100998.44
2022-08-07T07:32:05.647Z,101001.73
2022-08-07T07:34:38.380Z,101007.44
2022-08-07T07:37:22.035Z,101006.65
2022-08-07T07:40:10.547Z,101008.88
2022-08-07T07:42:51.311Z,101018.48
2022-08-07T07:46:36.751Z,101010.11
2022-08-07T07:48:35.093Z,101018.48
2022-08-07T07:51:07.675Z,101003.36
2022-08-07T07:53:52.121Z,101007.34
2022-08-07T07:56:29.968Z,101007.77
2022-08-07T08:00:04.403Z,101010.06
2022-08-07T08:03:04.841Z,101003.30
2022-08-07T08:05:42.681Z,101005.95
2022-08-07T08:08:32.386Z,100998.38
2022-08-07T08:11:01.251Z,100996.49
2022-08-07T08:13:36.663Z,100993.85
2022-08-07T08:16:25.252Z,100989.46
2022-08-07T08:18:56.103Z,100997.76
2022-08-07T08:21:55.859Z,100990.47
2022-08-07T08:25:18.433Z,101000.08
2022-08-07T08:27:57.657Z,100994.04
2022-08-07T08:30:34.581Z,100989.78
2022-08-07T08:33:05.756Z,100994.96
2022-08-07T08:35:50.641Z,101002.07
2022-08-07T08:38:29.339Z,100993.67
2022-08-07T08:41:13.114Z,100989.98
2022-08-07T08:44:07.393Z,100997.52
2022-08-07T08:47:11.388Z,100995.45
2022-08-07T08:50:34.850Z,100993.77
2022-08-07T08:53:34.200Z,100987.52
2022-08-07T08:56:11.174Z,100992.87
2022-08-07T08:58:54.650Z,100986.52
2022-08-07T09:01:43.799Z,100996.06
2022-08-07T09:04:53.189Z,100990.49
2022-08-07T09:07:57.584Z,100996.20
2022-08-07T09:11:24.848Z,101001.42
2022-08-07T09:14:31.973Z,101010.23
2022-08-07T09:17:17.393Z,101007.56
2022-08-07T09:20:35.528Z,101008.96
2022-08-07T09:24:49.081Z,100996.34
2022-08-07T09:26:57.284Z,101002.17
2022-08-07T09:30:03.265Z,100995.91
2022-08-07T09:33:53.013Z,100995.35
2022-08-07T09:36:42.757Z,100996.98
2022-08-07T09:39:53.589Z,100991.09
2022-08-07T09:43:00.101Z,100989.92
2022-08-07T09:47:26.313Z,100981.76
2022-08-07T09:50:00.802Z,100984.48
2022-08-07T09:52:42.375Z,100988.82
2022-08-07T09:56:03.987Z,100982.80
2022-08-07T09:59:07.700Z,100979.20
2022-08-07T10:02:34.428Z,100971.69
2022-08-07T10:06:01.305Z,100983.45
2022-08-07T10:08:58.114Z,100988.16
2022-08-07T10:12:01.048Z,100991.10
2022-08-07T10:14:43.859Z,100989.39
2022-08-07T10:18:11.145Z,100984.46
2022-08-07T10:20:42.067Z,100983.73
2022-08-07T10:24:17.155Z,100994.40
2022-08-07T10:27:06.724Z,100996.27
2022-08-07T10:30:12.367Z,100996.06
2022-08-07T10:34:14.331Z,100985.52
2022-08-07T10:36:45.461Z,100991.08
2022-08-07T10:40:02.723Z,100994.41
2022-08-07T10:43:00.815Z,101010.23
2022-08-07T10:45:58.415Z,101010.62
2022-08-07T10:49:00.165Z,100999.62
2022-08-07T10:52:01.642Z,100995.66
2022-08-07T10:54:53.145Z,100990.71
2022-08-07T10:57:56.171Z,100999.64
2022-08-07T11:00:39.281Z,101005.46
2022-08-07T11:03:37.716Z,100999.48
2022-08-07T11:06:54.325Z,100999.54
2022-08-07T11:10:08.403Z,101001.46
2022-08-07T11:12:32.051Z,100988.61
2022-08-07T11:15:31.892Z,101000.02
2022-08-07T11:18:24.971Z,100985.77
2022-08-07T11:21:06.061Z,100996.55
2022-08-07T11:24:14.781Z,100997.45
2022-08-07T11:27:13.471Z,100976.71
2022-08-07T11:30:20.201Z,100985.73
2022-08-07T11:33:48.775Z,101004.23
2022-08-07T11:36:36.443Z,101001.20
2022-08-07T11:39:59.315Z,101003.40
2022-08-07T11:42:30.328Z,101002.05
2022-08-07T11:45:23.797Z,101002.12
2022-08-07T11:49:17.503Z,101020.58
2022-08-07T11:52:09.429Z,101024.27
2022-08-07T11:55:18.604Z,101017.89
2022-08-07T11:58:33.498Z,101002.50
2022-08-07T12:01:26.953Z,101016.33
2022-08-07T12:04:56.010Z,101007.02
2022-08-07T12:07:39.313Z,101026.85
2022-08-07T12:10:23.188Z,101030.23
2022-08-07T12:13:11.387Z,101029.83
2022-08-07T12:16:06.619Z,101020.98
2022-08-07T12:19:07.172Z,101045.13
2022-08-07T12:22:38.780Z,101051.14
2022-08-07T12:26:22.201Z,101051.81
2022-08-07T12:29:37.753Z,101047.32
2022-08-07T12:32:27.374Z,101043.06
2022-08-07T12:34:57.784Z,101036.55
2022-08-07T12:38:09.013Z,101030.10
2022-08-07T12:44:01.402Z,101049.75
2022-08-07T12:46:39.542Z,101027.73
2022-08-07T12:49:25.770Z,101028.78
2022-08-07T12:52:20.537Z,101053.64
2022-08-07T12:54:54.628Z,101050.10
2022-08-07T12:57:39.039Z,101062.42
2022-08-07T13:00:30.996Z,101056.84
2022-08-07T13:04:00.559Z,101061.48
2022-08-07T13:07:02.658Z,101059.38
2022-08-07T13:10:28.312Z,101056.26
2022-08-07T13:13:47.464Z,101057.21
2022-08-07T13:16:10.191Z,101058.46
2022-08-07T13:18:53.592Z,101054.63
2022-08-07T13:21:57.706Z,101052.15
2022-08-07T13:25:15.201Z,101050.02
2022-08-07T13:28:10.769Z,101039.41
2022-08-07T13:31:02.128Z,101042.88
2022-08-07T13:34:30.565Z,101039.61
2022-08-07T13:37:10.813Z,101034.17
2022-08-07T13:40:35.611Z,101035.73
2022-08-07T13:42:57.676Z,101031.48
2022-08-07T13:46:11.831Z,101030.22
2022-08-07T13:48:27.953Z,101037.65
2022-08-07T13:51:27.977Z,101031.94
2022-08-07T13:54:04.685Z,101034.29
2022-08-07T13:56:40.816Z,101042.15
2022-08-07T13:59:25.273Z,101041.48
2022-08-07T14:02:03.677Z,101049.39
2022-08-07T14:04:49.305Z,101032.83
2022-08-07T14:07:24.498Z,101032.17
2022-08-07T14:10:03.101Z,101030.66
2022-08-07T14:13:02.352Z,101028.63
2022-08-07T14:15:41.869Z,101034.02
2022-08-07T14:18:29.351Z,101018.55
2022-08-07T14:21:21.262Z,101019.33
2022-08-07T14:24:14.296Z,101019.09
2022-08-07T14:27:16.151Z,101024.19
2022-08-07T14:30:09.510Z,101018.92
2022-08-07T14:32:54.272Z,101021.28
2022-08-07T14:35:43.354Z,101030.08
2022-08-07T14:38:30.726Z,101031.63
2022-08-07T14:41:12.486Z,101034.17
2022-08-07T14:43:58.262Z,101024.25
2022-08-07T14:46:56.652Z,101018.75
2022-08-07T14:49:58.416Z,101034.11
2022-08-07T14:52:27.987Z,101031.48
2022-08-07T14:54:59.846Z,101031.98
2022-08-07T15:00:30.609Z,101021.64
2022-08-07T15:03:22.861Z,101019.51
2022-08-07T15:06:13.775Z,101024.20
2022-08-07T15:08:54.753Z,101032.60
2022-08-07T15:11:54.152Z,101021.34
2022-08-07T15:14:30.666Z,101019.54
2022-08-07T15:22:55.873Z,101020.61
2022-08-07T15:25:36.518Z,101023.49
2022-08-07T15:28:34.520Z,101033.07
2022-08-07T15:31:04.799Z,101031.59
2022-08-07T15:33:38.499Z,101031.20
2022-08-07T15:36:13.970Z,101029.52
2022-08-07T15:39:12.078Z,101036.88
2022-08-07T15:42:45.065Z,101033.86
2022-08-07T15:44:56.932Z,101035.67
2022-08-07T15:48:00.137Z,101048.80
2022-08-07T15:53:55.789Z,101049.88
2022-08-07T15:56:37.117Z,101049.80
2022-08-07T15:59:19.661Z,101047.23
2022-08-07T16:02:10.858Z,101067.95
2022-08-07T16:04:47.213Z,101066.60
2022-08-07T16:08:31.124Z,101068.55
2022-08-07T16:10:18.527Z,101064.86
2022-08-07T16:13:57.838Z,101067.65
2022-08-07T16:16:49.278Z,101065.07
2022-08-07T16:19:58.883Z,101062.83
2022-08-07T16:22:55.033Z,101055.86
2022-08-07T16:25:55.035Z,101058.84
2022-08-07T16:30:09.271Z,101065.34
2022-08-07T16:31:51.258Z,101074.52
2022-08-07T16:34:56.476Z,101091.60
2022-08-07T16:38:09.641Z,101089.84
2022-08-07T16:41:24.371Z,101094.20
2022-08-07T16:44:40.508Z,101098.89
2022-08-07T16:47:56.490Z,101101.04
2022-08-07T16:51:13.445Z,101104.39
2022-08-07T16:54:01.881Z,101114.70
2022-08-07T16:58:00.809Z,101127.54
2022-08-07T17:00:29.843Z,101120.48
2022-08-07T17:03:11.394Z,101121.69
2022-08-07T17:06:29.245Z,101131.02
2022-08-07T17:09:15.802Z,101142.52
2022-08-07T17:12:34.088Z,101151.98
2022-08-07T17:16:15.016Z,101157.58
2022-08-07T17:20:00.972Z,101177.36
2022-08-07T17:22:36.276Z,101171.77
2022-08-07T17:25:47.756Z,101174.43
2022-08-07T17:28:20.018Z,101189.51
2022-08-07T17:31:16.374Z,101192.64
2022-08-07T17:35:33.113Z,101183.67
2022-08-07T17:38:08.174Z,101201.67
2022-08-07T17:42:03.755Z,101200.65
2022-08-07T17:45:03.986Z,101216.65
2022-08-07T17:48:30.587Z,101219.52
2022-08-07T17:51:59.574Z,101225.42
2022-08-07T17:55:54.918Z,101229.02
2022-08-07T17:58:30.091Z,101236.51
2022-08-07T18:01:20.788Z,101240.83
2022-08-07T18:04:16.711Z,101226.57
2022-08-07T18:07:19.355Z,101243.40
2022-08-07T18:10:07.451Z,101249.00
2022-08-07T18:13:00.694Z,101249.91
2022-08-07T18:15:53.359Z,101256.31
2022-08-07T18:18:44.995Z,101261.80
2022-08-07T18:22:03.434Z,101260.13
2022-08-07T18:24:51.014Z,101274.46
2022-08-07T18:28:01.828Z,101256.99
2022-08-07T18:30:39.363Z,101265.91
2022-08-07T18:34:33.829Z,101276.98
2022-08-07T18:38:59.168Z,101289.30
2022-08-07T18:41:20.725Z,101287.39
2022-08-07T18:44:11.880Z,101289.33
2022-08-07T18:47:01.333Z,101290.17
2022-08-07T18:50:40.675Z,101298.64
2022-08-07T18:53:55.526Z,101303.96
2022-08-07T18:57:30.369Z,101316.14
2022-08-07T19:00:33.363Z,101313.31
2022-08-07T19:03:35.377Z,101302.77
2022-08-07T19:07:00.188Z,101302.54
2022-08-07T19:10:18.605Z,101305.36
2022-08-07T19:13:59.787Z,101316.98
2022-08-07T19:17:18.140Z,101320.84
2022-08-07T19:20:29.512Z,101316.57
2022-08-07T19:23:18.502Z,101325.78
2022-08-07T19:26:22.769Z,101329.66
2022-08-07T19:31:04.457Z,101326.77
2022-08-07T19:32:10.955Z,101327.98
2022-08-07T19:34:41.572Z,101320.54
2022-08-07T19:37:22.354Z,101323.63
2022-08-07T19:40:02.713Z,101327.35
2022-08-07T19:42:43.253Z,101334.63
2022-08-07T19:46:01.216Z,101323.70
2022-08-07T19:48:18.672Z,101322.58
2022-08-07T19:54:34.119Z,101324.42
2022-08-07T19:56:59.724Z,101325.98
2022-08-07T19:59:06.950Z,101326.20
2022-08-07T20:01:56.122Z,101333.56
2022-08-07T20:04:32.138Z,101336.62
2022-08-07T20:07:11.318Z,101330.20
2022-08-07T20:10:38.042Z,101333.38
2022-08-07T20:12:44.011Z,101335.42
2022-08-07T20:15:24.893Z,101331.52
2022-08-07T20:18:06.545Z,101328.95
2022-08-07T20:20:48.477Z,101335.19
2022-08-07T20:23:39.893Z,101336.38
2022-08-07T20:26:20.430Z,101333.34
2022-08-07T20:29:01.766Z,101341.25
2022-08-07T20:31:46.520Z,101342.02
2022-08-07T20:34:39.965Z,101342.83
2022-08-07T20:37:16.178Z,101338.96
2022-08-07T20:40:02.364Z,101341.86
2022-08-07T20:42:34.617Z,101341.11
2022-08-07T20:45:32.680Z,101344.39
2022-08-07T20:47:58.769Z,101343.81
2022-08-07T20:50:31.161Z,101339.71
2022-08-07T20:53:00.539Z,101343.02
2022-08-07T20:55:32.242Z,101337.02
2022-08-07T20:58:12.274Z,101338.11
2022-08-07T21:00:57.949Z,101338.33
2022-08-07T21:03:28.027Z,101345.43
2022-08-07T21:06:21.594Z,101346.24
2022-08-07T21:09:07.472Z,101352.34
2022-08-07T21:11:50.171Z,101339.23
2022-08-07T21:14:48.485Z,101342.93
2022-08-07T21:18:02.308Z,101344.95
2022-08-07T21:20:30.342Z,101343.13
2022-08-07T21:23:15.387Z,101338.16
2022-08-07T21:26:05.409Z,101343.41
2022-08-07T21:28:59.772Z,101345.46
2022-08-07T21:32:47.308Z,101350.04
2022-08-07T21:35:59.957Z,101333.71
2022-08-07T21:38:19.280Z,101334.56
2022-08-07T21:41:10.118Z,101334.09
2022-08-07T21:43:55.175Z,101338.02
2022-08-07T21:46:42.230Z,101342.45
2022-08-07T21:49:27.774Z,101339.19
2022-08-07T21:52:32.943Z,101338.07
2022-08-07T21:55:27.928Z,101339.06
2022-08-07T21:58:12.068Z,101344.08
2022-08-07T22:00:47.569Z,101341.68
2022-08-07T22:03:31.011Z,101345.91
2022-08-07T22:06:36.211Z,101347.86
2022-08-07T22:09:25.409Z,101344.70
2022-08-07T22:12:05.239Z,101354.56
2022-08-07T22:14:59.541Z,101352.34
2022-08-07T22:17:38.068Z,101358.29
2022-08-07T22:20:40.217Z,101357.95
2022-08-07T22:23:25.304Z,101350.55
2022-08-07T22:26:12.747Z,101352.92
2022-08-07T22:28:58.542Z,101362.05
2022-08-07T22:32:00.258Z,101358.70
2022-08-07T22:34:57.534Z,101363.91
2022-08-07T22:38:03.211Z,101363.15
2022-08-07T22:40:52.876Z,101359.95
2022-08-07T22:43:44.079Z,101367.14
2022-08-07T22:47:03.026Z,101368.13
2022-08-07T22:50:20.677Z,101366.20
2022-08-07T22:54:07.477Z,101363.98
2022-08-07T22:56:47.649Z,101364.20
2022-08-07T22:59:49.725Z,101365.48
2022-08-07T23:03:10.101Z,101363.17
2022-08-07T23:06:07.328Z,101366.54
2022-08-07T23:10:04.473Z,101362.83
2022-08-07T23:12:56.665Z,101368.88
2022-08-07T23:16:06.618Z,101367.89
2022-08-07T23:19:48.223Z,101370.06
2022-08-07T23:22:32.721Z,101363.87
2022-08-07T23:25:50.544Z,101369.22
2022-08-07T23:28:57.284Z,101369.47
2022-08-07T23:32:49.032Z,101370.22
2022-08-07T23:35:12.812Z,101373.52
2022-08-07T23:38:36.754Z,101377.27
2022-08-07T23:42:04.838Z,101376.15
2022-08-07T23:45:15.232Z,101369.11
2022-08-07T23:48:27.531Z,101372.94
2022-08-07T23:53:06.514Z,101374.66
2022-08-07T23:54:46.297Z,101366.50
2022-08-07T23:57:38.312Z,101363.17
